Time,TemperatureF,DewpointF,PressureIn,WindDirection,WindDirectionDegrees,WindSpeedMPH,WindSpeedGustMPH,Humidity,HourlyPrecipIn,Conditions,Clouds,dailyrainin,SoftwareType,DateUTC
2015-08-29 00:01:00,64.0,54.0,-100.00,SSW,195,15.0,29.0,69,-99.99,,,-99.99,,2015-08-29 07:01:00,
2015-08-29 00:23:00,64.0,54.0,-100.00,SSW,195,15.0,29.0,69,-99.99,,,-99.99,,2015-08-29 07:23:00,
2015-08-29 00:34:00,64.0,54.0,-100.00,SSW,195,15.0,29.0,69,-99.99,,,-99.99,,2015-08-29 07:34:00,
2015-08-29 00:44:00,64.0,54.0,-100.00,SSW,195,15.0,29.0,69,-99.99,,,-99.99,,2015-08-29 07:44:00,
2015-08-29 00:53:00,64.0,54.0,-100.00,SSW,195,15.0,29.0,69,-99.99,,,-99.99,,2015-08-29 07:53:00,
2015-08-29 01:01:00,61.0,55.0,-100.00,South,188,17.0,35.0,81,-99.99,,,-99.99,,2015-08-29 08:01:00,
2015-08-29 01:23:00,61.0,55.0,-100.00,South,188,17.0,35.0,81,-99.99,,,-99.99,,2015-08-29 08:23:00,
2015-08-29 01:33:00,61.0,55.0,-100.00,South,188,17.0,35.0,81,-99.99,,,-99.99,,2015-08-29 08:33:00,
2015-08-29 01:44:00,61.0,55.0,-100.00,South,188,17.0,35.0,81,-99.99,,,-99.99,,2015-08-29 08:44:00,
2015-08-29 01:54:00,61.0,55.0,-100.00,South,188,17.0,35.0,81,-99.99,,,-99.99,,2015-08-29 08:54:00,
2015-08-29 02:01:00,58.0,54.0,-100.00,South,191,19.0,37.0,88,-99.99,,,-99.99,,2015-08-29 09:01:00,
2015-08-29 02:23:00,58.0,54.0,-100.00,South,191,19.0,37.0,88,-99.99,,,-99.99,,2015-08-29 09:23:00,
2015-08-29 02:33:00,58.0,54.0,-100.00,South,191,19.0,37.0,88,-99.99,,,-99.99,,2015-08-29 09:33:00,
2015-08-29 02:44:00,58.0,54.0,-100.00,South,191,19.0,37.0,88,-99.99,,,-99.99,,2015-08-29 09:44:00,
2015-08-29 02:54:00,58.0,54.0,-100.00,South,191,19.0,37.0,88,-99.99,,,-99.99,,2015-08-29 09:54:00,
2015-08-29 03:01:00,57.0,57.0,-100.00,South,183,13.0,25.0,100,-99.99,,,-99.99,,2015-08-29 10:01:00,
2015-08-29 03:23:00,57.0,57.0,-100.00,South,183,13.0,25.0,100,-99.99,,,-99.99,,2015-08-29 10:23:00,
2015-08-29 03:33:00,57.0,57.0,-100.00,South,183,13.0,25.0,100,-99.99,,,-99.99,,2015-08-29 10:33:00,
2015-08-29 03:44:00,57.0,57.0,-100.00,South,183,13.0,25.0,100,-99.99,,,-99.99,,2015-08-29 10:44:00,
2015-08-29 03:54:00,57.0,57.0,-100.00,South,183,13.0,25.0,100,-99.99,,,-99.99,,2015-08-29 10:54:00,
2015-08-29 04:01:00,56.0,56.0,-100.00,WSW,249,21.0,44.0,100,-99.99,,,-99.99,,2015-08-29 11:01:00,
2015-08-29 04:24:00,56.0,56.0,-100.00,WSW,249,21.0,44.0,100,-99.99,,,-99.99,,2015-08-29 11:24:00,
2015-08-29 04:34:00,56.0,56.0,-100.00,WSW,249,21.0,44.0,100,-99.99,,,-99.99,,2015-08-29 11:34:00,
2015-08-29 04:44:00,56.0,56.0,-100.00,WSW,249,21.0,44.0,100,-99.99,,,-99.99,,2015-08-29 11:44:00,
2015-08-29 04:54:00,56.0,56.0,-100.00,WSW,249,21.0,44.0,100,-99.99,,,-99.99,,2015-08-29 11:54:00,
2015-08-29 05:01:00,55.0,55.0,-100.00,SW,229,15.0,29.0,100,-99.99,,,-99.99,,2015-08-29 12:01:00,
2015-08-29 05:24:00,55.0,55.0,-100.00,SW,229,15.0,29.0,100,-99.99,,,-99.99,,2015-08-29 12:24:00,
2015-08-29 05:34:00,55.0,55.0,-100.00,SW,229,15.0,29.0,100,-99.99,,,-99.99,,2015-08-29 12:34:00,
2015-08-29 05:44:00,55.0,55.0,-100.00,SW,229,15.0,29.0,100,-99.99,,,-99.99,,2015-08-29 12:44:00,
2015-08-29 05:54:00,55.0,55.0,-100.00,SW,229,15.0,29.0,100,-99.99,,,-99.99,,2015-08-29 12:54:00,
2015-08-29 06:01:00,55.0,55.0,-100.00,SW,235,12.0,27.0,100,-99.99,,,-99.99,,2015-08-29 13:01:00,
2015-08-29 06:24:00,55.0,55.0,-100.00,SW,235,12.0,27.0,100,-99.99,,,-99.99,,2015-08-29 13:24:00,
2015-08-29 06:34:00,55.0,55.0,-100.00,SW,235,12.0,27.0,100,-99.99,,,-99.99,,2015-08-29 13:34:00,
2015-08-29 06:44:00,55.0,55.0,-100.00,SW,235,12.0,27.0,100,-99.99,,,-99.99,,2015-08-29 13:44:00,
2015-08-29 06:53:00,55.0,55.0,-100.00,SW,235,12.0,27.0,100,-99.99,,,-99.99,,2015-08-29 13:53:00,
2015-08-29 07:01:00,55.0,55.0,-100.00,SSW,209,10.0,20.0,100,-99.99,,,-99.99,,2015-08-29 14:01:00,
2015-08-29 07:23:00,55.0,55.0,-100.00,SSW,209,10.0,20.0,100,-99.99,,,-99.99,,2015-08-29 14:23:00,
2015-08-29 07:34:00,55.0,55.0,-100.00,SSW,209,10.0,20.0,100,-99.99,,,-99.99,,2015-08-29 14:34:00,
2015-08-29 07:44:00,55.0,55.0,-100.00,SSW,209,10.0,20.0,100,-99.99,,,-99.99,,2015-08-29 14:44:00,
2015-08-29 07:53:00,55.0,55.0,-100.00,SSW,209,10.0,20.0,100,-99.99,,,-99.99,,2015-08-29 14:53:00,
2015-08-29 08:23:00,54.0,54.0,-100.00,South,186,10.0,16.0,100,-99.99,,,-99.99,,2015-08-29 15:23:00,
2015-08-29 08:34:00,54.0,54.0,-100.00,South,186,10.0,16.0,100,-99.99,,,-99.99,,2015-08-29 15:34:00,
2015-08-29 08:44:00,54.0,54.0,-100.00,South,186,10.0,16.0,100,-99.99,,,-99.99,,2015-08-29 15:44:00,
2015-08-29 08:54:00,54.0,54.0,-100.00,South,186,10.0,16.0,100,-99.99,,,-99.99,,2015-08-29 15:54:00,
2015-08-29 09:01:00,55.0,55.0,-100.00,South,184,10.0,17.0,100,-99.99,,,-99.99,,2015-08-29 16:01:00,
2015-08-29 09:24:00,55.0,55.0,-100.00,South,184,10.0,17.0,100,-99.99,,,-99.99,,2015-08-29 16:24:00,
2015-08-29 09:34:00,55.0,55.0,-100.00,South,184,10.0,17.0,100,-99.99,,,-99.99,,2015-08-29 16:34:00,
2015-08-29 09:54:00,55.0,55.0,-100.00,South,184,10.0,17.0,100,-99.99,,,-99.99,,2015-08-29 16:54:00,
2015-08-29 10:01:00,58.0,58.0,-100.00,South,189,10.0,16.0,100,-99.99,,,-99.99,,2015-08-29 17:01:00,
2015-08-29 10:23:00,58.0,58.0,-100.00,South,189,10.0,16.0,100,-99.99,,,-99.99,,2015-08-29 17:23:00,
2015-08-29 10:34:00,58.0,58.0,-100.00,South,189,10.0,16.0,100,-99.99,,,-99.99,,2015-08-29 17:34:00,
2015-08-29 10:45:00,58.0,58.0,-100.00,South,189,10.0,16.0,100,-99.99,,,-99.99,,2015-08-29 17:45:00,
2015-08-29 10:54:00,58.0,58.0,-100.00,South,189,10.0,16.0,100,-99.99,,,-99.99,,2015-08-29 17:54:00,
2015-08-29 11:01:00,60.0,55.0,-100.00,South,184,10.0,16.0,84,-99.99,,,-99.99,,2015-08-29 18:01:00,
2015-08-29 11:24:00,60.0,55.0,-100.00,South,184,10.0,16.0,84,-99.99,,,-99.99,,2015-08-29 18:24:00,
2015-08-29 11:34:00,60.0,55.0,-100.00,South,184,10.0,16.0,84,-99.99,,,-99.99,,2015-08-29 18:34:00,
2015-08-29 11:44:00,60.0,55.0,-100.00,South,184,10.0,16.0,84,-99.99,,,-99.99,,2015-08-29 18:44:00,
2015-08-29 11:54:00,60.0,55.0,-100.00,South,184,10.0,16.0,84,-99.99,,,-99.99,,2015-08-29 18:54:00,
2015-08-29 12:01:00,63.0,55.0,-100.00,SSW,192,13.0,20.0,74,-99.99,,,-99.99,,2015-08-29 19:01:00,
2015-08-29 12:24:00,63.0,55.0,-100.00,SSW,192,13.0,20.0,74,-99.99,,,-99.99,,2015-08-29 19:24:00,
2015-08-29 12:34:00,63.0,55.0,-100.00,SSW,192,13.0,20.0,74,-99.99,,,-99.99,,2015-08-29 19:34:00,
2015-08-29 12:44:00,63.0,55.0,-100.00,SSW,192,13.0,20.0,74,-99.99,,,-99.99,,2015-08-29 19:44:00,
2015-08-29 13:01:00,64.0,54.0,-100.00,SSW,209,9.0,20.0,70,-99.99,,,-99.99,,2015-08-29 20:01:00,
2015-08-29 13:23:00,64.0,54.0,-100.00,SSW,209,9.0,20.0,70,-99.99,,,-99.99,,2015-08-29 20:23:00,
2015-08-29 13:34:00,64.0,54.0,-100.00,SSW,209,9.0,20.0,70,-99.99,,,-99.99,,2015-08-29 20:34:00,
2015-08-29 13:44:00,64.0,54.0,-100.00,SSW,209,9.0,20.0,70,-99.99,,,-99.99,,2015-08-29 20:44:00,
2015-08-29 13:53:00,64.0,54.0,-100.00,SSW,209,9.0,20.0,70,-99.99,,,-99.99,,2015-08-29 20:53:00,
2015-08-29 14:23:00,61.0,55.0,-100.00,WSW,252,11.0,17.0,81,-99.99,,,-99.99,,2015-08-29 21:23:00,
2015-08-29 14:34:00,61.0,55.0,-100.00,WSW,252,11.0,17.0,81,-99.99,,,-99.99,,2015-08-29 21:34:00,
2015-08-29 14:44:00,61.0,55.0,-100.00,WSW,252,11.0,17.0,81,-99.99,,,-99.99,,2015-08-29 21:44:00,
2015-08-29 14:56:00,61.0,55.0,-100.00,WSW,252,11.0,17.0,81,-99.99,,,-99.99,,2015-08-29 21:56:00,
2015-08-29 15:01:00,60.0,52.0,-100.00,West,266,11.0,20.0,74,-99.99,,,-99.99,,2015-08-29 22:01:00,
2015-08-29 15:24:00,60.0,52.0,-100.00,West,266,11.0,20.0,74,-99.99,,,-99.99,,2015-08-29 22:24:00,
2015-08-29 15:34:00,60.0,52.0,-100.00,West,266,11.0,20.0,74,-99.99,,,-99.99,,2015-08-29 22:34:00,
2015-08-29 15:44:00,60.0,52.0,-100.00,West,266,11.0,20.0,74,-99.99,,,-99.99,,2015-08-29 22:44:00,
2015-08-29 15:54:00,60.0,52.0,-100.00,West,266,11.0,20.0,74,-99.99,,,-99.99,,2015-08-29 22:54:00,
2015-08-29 16:01:00,64.0,52.0,-100.00,WSW,254,8.0,16.0,64,-99.99,,,-99.99,,2015-08-29 23:01:00,
2015-08-29 16:23:00,64.0,52.0,-100.00,WSW,254,8.0,16.0,64,-99.99,,,-99.99,,2015-08-29 23:23:00,
2015-08-29 16:34:00,64.0,52.0,-100.00,WSW,254,8.0,16.0,64,-99.99,,,-99.99,,2015-08-29 23:34:00,
2015-08-29 16:44:00,64.0,52.0,-100.00,WSW,254,8.0,16.0,64,-99.99,,,-99.99,,2015-08-29 23:44:00,
2015-08-29 17:01:00,65.0,53.0,-100.00,SW,218,7.0,15.0,64,-99.99,,,-99.99,,2015-08-30 00:01:00,
2015-08-29 17:23:00,65.0,53.0,-100.00,SW,218,7.0,15.0,64,-99.99,,,-99.99,,2015-08-30 00:23:00,
2015-08-29 17:34:00,65.0,53.0,-100.00,SW,218,7.0,15.0,64,-99.99,,,-99.99,,2015-08-30 00:34:00,
2015-08-29 17:44:00,65.0,53.0,-100.00,SW,218,7.0,15.0,64,-99.99,,,-99.99,,2015-08-30 00:44:00,
2015-08-29 17:54:00,65.0,53.0,-100.00,SW,218,7.0,15.0,64,-99.99,,,-99.99,,2015-08-30 00:54:00,
2015-08-29 18:01:00,63.0,51.0,-100.00,WSW,257,8.0,17.0,65,-99.99,,,-99.99,,2015-08-30 01:01:00,
2015-08-29 18:23:00,63.0,51.0,-100.00,WSW,257,8.0,17.0,65,-99.99,,,-99.99,,2015-08-30 01:23:00,
2015-08-29 18:33:00,63.0,51.0,-100.00,WSW,257,8.0,17.0,65,-99.99,,,-99.99,,2015-08-30 01:33:00,
2015-08-29 18:43:00,63.0,51.0,-100.00,WSW,257,8.0,17.0,65,-99.99,,,-99.99,,2015-08-30 01:43:00,
2015-08-29 18:53:00,63.0,51.0,-100.00,WSW,257,8.0,17.0,65,-99.99,,,-99.99,,2015-08-30 01:53:00,
2015-08-29 19:01:00,60.0,52.0,-100.00,SW,223,5.0,16.0,76,-99.99,,,-99.99,,2015-08-30 02:01:00,
2015-08-29 19:23:00,60.0,52.0,-100.00,SW,223,5.0,16.0,76,-99.99,,,-99.99,,2015-08-30 02:23:00,
2015-08-29 19:33:00,60.0,52.0,-100.00,SW,223,5.0,16.0,76,-99.99,,,-99.99,,2015-08-30 02:33:00,
2015-08-29 19:43:00,60.0,52.0,-100.00,SW,223,5.0,16.0,76,-99.99,,,-99.99,,2015-08-30 02:43:00,
2015-08-29 19:53:00,60.0,52.0,-100.00,SW,223,5.0,16.0,76,-99.99,,,-99.99,,2015-08-30 02:53:00,
2015-08-29 20:01:00,56.0,52.0,-100.00,WSW,238,6.0,14.0,87,-99.99,,,-99.99,,2015-08-30 03:01:00,
2015-08-29 20:23:00,56.0,52.0,-100.00,WSW,238,6.0,14.0,87,-99.99,,,-99.99,,2015-08-30 03:23:00,
2015-08-29 20:44:00,56.0,52.0,-100.00,WSW,238,6.0,14.0,87,-99.99,,,-99.99,,2015-08-30 03:44:00,
2015-08-29 20:52:00,56.0,52.0,-100.00,North,-9999,-999.9,-999.0,87,-99.99,,,-99.99,,2015-08-30 03:52:00,